createdAt,value
2022-11-10T00:02:22.072Z,10.70
2022-11-10T00:05:07.457Z,10.60
2022-11-10T00:07:52.844Z,10.60
2022-11-10T00:10:57.864Z,10.50
2022-11-10T00:14:04.137Z,10.40
2022-11-10T00:17:01.544Z,10.30
2022-11-10T00:19:47.050Z,10.30
2022-11-10T00:22:35.979Z,10.10
2022-11-10T00:25:21.728Z,10.10
2022-11-10T00:28:07.118Z,10.10
2022-11-10T00:30:55.566Z,10.10
2022-11-10T00:33:44.282Z,10.10
2022-11-10T00:36:33.148Z,10.20
2022-11-10T00:39:18.661Z,10.20
2022-11-10T00:42:04.323Z,10.20
2022-11-10T00:44:50.069Z,10.30
2022-11-10T00:47:37.068Z,10.30
2022-11-10T00:50:22.465Z,10.20
2022-11-10T00:53:07.927Z,10.20
2022-11-10T00:55:53.466Z,10.20
2022-11-10T00:58:38.716Z,10.10
2022-11-10T01:01:25.118Z,10.20
2022-11-10T01:04:10.796Z,10.20
2022-11-10T01:06:56.316Z,10.30
2022-11-10T01:09:42.033Z,10.40
2022-11-10T01:12:30.833Z,10.40
2022-11-10T01:15:16.445Z,10.40
2022-11-10T01:18:01.764Z,10.40
2022-11-10T01:20:53.025Z,10.30
2022-11-10T01:23:38.602Z,10.20
2022-11-10T01:26:24.043Z,10.10
2022-11-10T01:29:09.743Z,9.90
2022-11-10T01:31:55.617Z,9.80
2022-11-10T01:34:40.839Z,9.70
2022-11-10T01:37:26.007Z,9.50
2022-11-10T01:40:11.927Z,9.30
2022-11-10T01:42:58.534Z,9.20
2022-11-10T01:45:47.017Z,9.20
2022-11-10T01:48:40.666Z,9.20
2022-11-10T01:51:32.110Z,9.20
2022-11-10T01:54:19.729Z,9.20
2022-11-10T01:57:06.987Z,9.10
2022-11-10T01:59:52.185Z,9.30
2022-11-10T02:02:49.600Z,9.40
2022-11-10T02:05:34.957Z,9.50
2022-11-10T02:08:21.770Z,9.60
2022-11-10T02:11:07.006Z,9.60
2022-11-10T02:13:52.649Z,9.60
2022-11-10T02:16:38.129Z,9.50
2022-11-10T02:19:26.012Z,9.50
2022-11-10T02:22:11.517Z,9.40
2022-11-10T02:24:57.605Z,9.20
2022-11-10T02:27:42.941Z,9.20
2022-11-10T02:30:28.141Z,9.20
2022-11-10T02:33:13.959Z,9.30
2022-11-10T02:35:59.427Z,9.10
2022-11-10T02:38:44.978Z,9.00
2022-11-10T02:41:30.866Z,8.90
2022-11-10T02:44:16.371Z,8.90
2022-11-10T02:47:01.866Z,9.00
2022-11-10T02:49:47.406Z,9.20
2022-11-10T02:52:33.583Z,9.30
2022-11-10T02:55:18.881Z,9.40
2022-11-10T02:58:04.509Z,9.30
2022-11-10T03:00:49.803Z,9.20
2022-11-10T03:03:35.585Z,9.30
2022-11-10T03:06:20.707Z,9.30
2022-11-10T03:09:06.729Z,9.40
2022-11-10T03:11:52.328Z,9.40
2022-11-10T03:14:38.238Z,9.30
2022-11-10T03:17:23.546Z,9.40
2022-11-10T03:20:09.702Z,9.20
2022-11-10T03:23:00.161Z,9.30
2022-11-10T03:25:46.137Z,9.20
2022-11-10T03:28:31.371Z,9.00
2022-11-10T03:31:16.820Z,8.90
2022-11-10T03:34:02.446Z,8.90
2022-11-10T03:36:47.922Z,8.70
2022-11-10T03:39:33.382Z,8.60
2022-11-10T03:42:18.941Z,8.60
2022-11-10T03:45:05.126Z,8.50
2022-11-10T03:47:50.878Z,8.50
2022-11-10T03:50:36.822Z,8.50
2022-11-10T03:53:22.664Z,8.50
2022-11-10T03:56:08.677Z,8.70
2022-11-10T03:58:54.401Z,8.90
2022-11-10T04:01:39.955Z,8.90
2022-11-10T04:04:43.992Z,9.00
2022-11-10T04:07:48.082Z,9.20
2022-11-10T04:10:35.603Z,9.20
2022-11-10T04:13:39.518Z,9.30
2022-11-10T04:16:25.087Z,9.30
2022-11-10T04:19:10.737Z,9.50
2022-11-10T04:21:56.389Z,9.40
2022-11-10T04:24:41.718Z,9.50
2022-11-10T04:27:26.697Z,9.50
2022-11-10T04:30:12.344Z,9.50
2022-11-10T04:32:57.511Z,9.60
2022-11-10T04:35:42.982Z,9.60
2022-11-10T04:38:28.529Z,9.60
2022-11-10T04:41:14.073Z,9.60
2022-11-10T04:44:00.350Z,9.50
2022-11-10T04:46:45.600Z,9.50
2022-11-10T04:49:30.828Z,9.40
2022-11-10T04:52:16.710Z,9.50
2022-11-10T04:55:01.819Z,9.40
2022-11-10T04:57:47.142Z,9.40
2022-11-10T05:00:32.916Z,9.40
2022-11-10T05:03:18.529Z,9.40
2022-11-10T05:06:04.852Z,9.40
2022-11-10T05:08:50.073Z,9.30
2022-11-10T05:11:35.303Z,9.30
2022-11-10T05:14:20.370Z,9.20
2022-11-10T05:17:06.015Z,9.20
2022-11-10T05:19:51.562Z,9.10
2022-11-10T05:22:36.668Z,9.10
2022-11-10T05:25:22.074Z,9.10
2022-11-10T05:28:08.780Z,9.00
2022-11-10T05:30:54.731Z,8.90
2022-11-10T05:33:40.491Z,8.80
2022-11-10T05:36:25.873Z,8.80
2022-11-10T05:39:11.496Z,8.80
2022-11-10T05:41:57.254Z,8.80
2022-11-10T05:44:42.889Z,8.90
2022-11-10T05:47:28.250Z,8.80
2022-11-10T05:50:13.842Z,8.90
2022-11-10T05:52:59.630Z,8.80
2022-11-10T05:55:44.821Z,8.90
2022-11-10T05:58:30.263Z,8.80
2022-11-10T06:01:16.133Z,8.80
2022-11-10T06:04:01.772Z,8.70
2022-11-10T06:06:47.467Z,8.70
2022-11-10T06:09:32.888Z,8.70
2022-11-10T06:12:18.534Z,8.90
2022-11-10T06:15:05.758Z,8.90
2022-11-10T06:17:50.960Z,9.00
2022-11-10T06:20:36.510Z,9.00
2022-11-10T06:23:22.111Z,9.10
2022-11-10T06:26:07.762Z,9.00
2022-11-10T06:28:52.826Z,9.10
2022-11-10T06:31:38.271Z,9.10
2022-11-10T06:34:23.958Z,9.00
2022-11-10T06:37:09.448Z,9.10
2022-11-10T06:39:54.589Z,9.10
2022-11-10T06:42:40.129Z,9.10
2022-11-10T06:45:25.559Z,9.10
2022-11-10T06:48:13.801Z,9.10
2022-11-10T06:51:02.165Z,9.10
2022-11-10T06:53:48.192Z,9.10
2022-11-10T06:56:34.828Z,9.10
2022-11-10T06:59:20.658Z,8.90
2022-11-10T07:02:06.137Z,9.00
2022-11-10T07:04:51.713Z,9.00
2022-11-10T07:07:36.869Z,8.90
2022-11-10T07:10:22.342Z,8.90
2022-11-10T07:13:07.534Z,8.90
2022-11-10T07:15:52.982Z,9.00
2022-11-10T07:18:38.677Z,9.10
2022-11-10T07:21:24.534Z,9.10
2022-11-10T07:24:09.781Z,9.00
2022-11-10T07:26:55.498Z,8.80
2022-11-10T07:29:41.264Z,8.80
2022-11-10T07:32:26.943Z,8.80
2022-11-10T07:35:12.048Z,8.80
2022-11-10T07:37:58.288Z,8.70
2022-11-10T07:40:43.700Z,8.70
2022-11-10T07:43:29.142Z,8.80
2022-11-10T07:46:14.310Z,8.90
2022-11-10T07:48:59.666Z,8.90
2022-11-10T07:51:45.117Z,9.00
2022-11-10T07:54:30.871Z,9.10
2022-11-10T07:57:16.473Z,9.20
2022-11-10T08:00:02.173Z,9.30
2022-11-10T08:02:47.359Z,9.40
2022-11-10T08:05:33.666Z,9.50
2022-11-10T08:08:19.024Z,9.60
2022-11-10T08:11:04.350Z,9.60
2022-11-10T08:13:50.026Z,9.70
2022-11-10T08:16:35.639Z,9.80
2022-11-10T08:19:20.750Z,10.00
2022-11-10T08:22:06.170Z,10.80
2022-11-10T08:24:51.738Z,11.50
2022-11-10T08:27:37.246Z,12.10
2022-11-10T08:30:22.691Z,12.70
2022-11-10T08:33:09.847Z,13.50
2022-11-10T08:35:55.338Z,14.40
2022-11-10T08:38:40.829Z,15.20
2022-11-10T08:41:26.162Z,16.60
2022-11-10T08:44:14.439Z,17.40
2022-11-10T08:47:02.210Z,18.10
2022-11-10T08:49:48.265Z,18.40
2022-11-10T08:52:33.541Z,17.90
2022-11-10T08:55:20.440Z,17.40
2022-11-10T08:58:06.686Z,18.20
2022-11-10T09:00:52.501Z,18.60
2022-11-10T09:03:37.998Z,18.70
2022-11-10T09:06:23.714Z,17.60
2022-11-10T09:09:10.525Z,17.70
2022-11-10T09:11:56.268Z,16.80
2022-11-10T09:14:41.862Z,15.70
2022-11-10T09:17:27.339Z,16.90
2022-11-10T09:20:13.125Z,17.70
2022-11-10T09:23:04.101Z,17.40
2022-11-10T09:25:50.333Z,17.40
2022-11-10T09:28:35.754Z,18.10
2022-11-10T09:31:21.186Z,18.50
2022-11-10T09:34:06.714Z,19.10
2022-11-10T09:36:51.847Z,20.30
2022-11-10T09:39:37.260Z,21.20
2022-11-10T09:42:33.990Z,20.70
2022-11-10T09:45:22.510Z,20.70
2022-11-10T09:48:15.411Z,21.30
2022-11-10T09:51:12.712Z,21.90
2022-11-10T09:54:01.419Z,23.40
2022-11-10T09:56:47.288Z,23.80
2022-11-10T09:59:34.161Z,23.10
2022-11-10T10:02:25.598Z,22.30
2022-11-10T10:05:23.661Z,19.50
2022-11-10T10:08:12.051Z,19.20
2022-11-10T10:11:05.414Z,19.20
2022-11-10T10:14:02.869Z,20.60
2022-11-10T10:16:51.504Z,20.60
2022-11-10T10:19:48.866Z,21.40
2022-11-10T10:22:34.013Z,21.00
2022-11-10T10:25:22.222Z,21.80
2022-11-10T10:28:21.298Z,22.20
2022-11-10T10:31:26.859Z,21.90
2022-11-10T10:34:13.953Z,22.00
2022-11-10T10:36:59.429Z,22.60
2022-11-10T10:39:46.760Z,22.70
2022-11-10T10:42:36.522Z,23.40
2022-11-10T10:45:26.058Z,23.60
2022-11-10T10:48:24.933Z,24.20
2022-11-10T10:51:10.641Z,23.60
2022-11-10T10:53:56.573Z,24.20
2022-11-10T10:56:41.717Z,24.90
2022-11-10T10:59:27.386Z,25.10
2022-11-10T11:02:26.812Z,25.10
2022-11-10T11:05:19.555Z,25.00
2022-11-10T11:08:04.988Z,25.30
2022-11-10T11:10:50.704Z,26.50
2022-11-10T11:13:36.750Z,25.60
2022-11-10T11:16:22.546Z,26.10
2022-11-10T11:19:09.092Z,26.00
2022-11-10T11:22:09.674Z,25.30
2022-11-10T11:24:59.989Z,25.40
2022-11-10T11:27:49.316Z,25.90
2022-11-10T11:30:37.664Z,24.90
2022-11-10T11:33:39.793Z,24.60
2022-11-10T11:36:43.745Z,23.70
2022-11-10T11:39:34.763Z,23.60
2022-11-10T11:42:25.697Z,22.30
2022-11-10T11:45:24.370Z,21.50
2022-11-10T11:48:09.642Z,20.30
2022-11-10T11:50:57.644Z,19.30
2022-11-10T11:53:45.827Z,20.40
2022-11-10T11:56:33.127Z,22.60
2022-11-10T11:59:21.637Z,23.70
2022-11-10T12:02:13.320Z,23.80
2022-11-10T12:05:17.242Z,23.60
2022-11-10T12:08:13.066Z,22.90
2022-11-10T12:11:10.529Z,21.50
2022-11-10T12:14:01.697Z,22.30
2022-11-10T12:17:07.382Z,20.70
2022-11-10T12:19:56.098Z,20.40
2022-11-10T12:22:53.669Z,20.50
2022-11-10T12:25:54.440Z,20.80
2022-11-10T12:28:42.694Z,20.60
2022-11-10T12:31:29.916Z,20.20
2022-11-10T12:34:29.244Z,20.10
2022-11-10T12:37:27.556Z,20.30
2022-11-10T12:40:17.944Z,20.30
2022-11-10T12:43:06.464Z,19.40
2022-11-10T12:45:54.676Z,18.60
2022-11-10T12:48:51.133Z,17.90
2022-11-10T12:51:43.794Z,18.40
2022-11-10T12:54:29.569Z,19.20
2022-11-10T12:57:17.509Z,18.80
2022-11-10T13:00:02.819Z,17.50
2022-11-10T13:02:49.206Z,16.40
2022-11-10T13:05:41.150Z,16.10
2022-11-10T13:08:28.563Z,16.40
2022-11-10T13:11:14.434Z,16.80
2022-11-10T13:14:01.222Z,16.40
2022-11-10T13:16:49.685Z,16.20
2022-11-10T13:19:38.958Z,16.60
2022-11-10T13:22:31.902Z,16.90
2022-11-10T13:25:36.004Z,17.00
2022-11-10T13:28:40.376Z,16.70
2022-11-10T13:31:28.476Z,16.20
2022-11-10T13:34:28.015Z,15.90
2022-11-10T13:37:31.879Z,15.90
2022-11-10T13:40:17.800Z,15.80
2022-11-10T13:43:03.245Z,15.60
2022-11-10T13:45:49.324Z,15.60
2022-11-10T13:48:53.839Z,15.50
2022-11-10T13:51:39.578Z,15.50
2022-11-10T13:54:31.040Z,15.40
2022-11-10T13:57:19.631Z,15.60
2022-11-10T14:00:13.647Z,15.60
2022-11-10T14:03:03.268Z,15.50
2022-11-10T14:06:09.573Z,15.30
2022-11-10T14:08:55.747Z,15.20
2022-11-10T14:11:49.524Z,15.10
2022-11-10T14:14:51.923Z,15.00
2022-11-10T14:17:57.868Z,15.00
2022-11-10T14:20:44.370Z,15.00
2022-11-10T14:23:47.974Z,15.10
2022-11-10T14:26:51.949Z,14.90
2022-11-10T14:29:39.219Z,14.80
2022-11-10T14:32:26.218Z,14.80
2022-11-10T14:35:19.755Z,14.60
2022-11-10T14:38:06.578Z,14.80
2022-11-10T14:40:56.218Z,14.90
2022-11-10T14:43:41.793Z,14.60
2022-11-10T14:46:26.931Z,14.70
2022-11-10T14:49:12.494Z,14.60
2022-11-10T14:51:59.192Z,14.60
2022-11-10T14:54:46.774Z,14.50
2022-11-10T14:57:32.316Z,14.40
2022-11-10T15:00:19.490Z,14.30
2022-11-10T15:03:05.807Z,14.30
2022-11-10T15:05:51.849Z,14.20
2022-11-10T15:08:37.513Z,14.10
2022-11-10T15:11:33.317Z,13.90
2022-11-10T15:14:47.709Z,13.60
2022-11-10T15:17:47.017Z,13.40
2022-11-10T15:20:39.537Z,13.10
2022-11-10T15:23:33.389Z,13.00
2022-11-10T15:26:22.882Z,12.80
2022-11-10T15:29:18.293Z,12.50
2022-11-10T15:32:03.564Z,12.40
2022-11-10T15:34:49.652Z,12.20
2022-11-10T15:37:34.997Z,12.00
2022-11-10T15:40:28.657Z,11.90
2022-11-10T15:43:19.845Z,11.70
2022-11-10T15:46:16.487Z,11.60
2022-11-10T15:49:03.982Z,11.40
2022-11-10T15:51:50.499Z,11.30
2022-11-10T15:54:36.294Z,11.10
2022-11-10T15:57:22.248Z,10.90
2022-11-10T16:00:11.931Z,10.80
2022-11-10T16:02:58.726Z,10.50
2022-11-10T16:05:44.188Z,10.30
2022-11-10T16:08:32.180Z,10.30
2022-11-10T16:11:18.909Z,10.30
2022-11-10T16:14:05.509Z,10.10
2022-11-10T16:16:50.933Z,10.00
2022-11-10T16:19:36.671Z,9.90
2022-11-10T16:22:22.149Z,9.70
2022-11-10T16:25:07.979Z,9.60
2022-11-10T16:27:53.370Z,9.50
2022-11-10T16:30:39.337Z,9.30
2022-11-10T16:33:27.762Z,9.20
2022-11-10T16:36:19.999Z,9.00
2022-11-10T16:39:10.899Z,9.00
2022-11-10T16:41:56.429Z,9.10
2022-11-10T16:44:42.738Z,9.00
2022-11-10T16:47:29.872Z,8.90
2022-11-10T16:50:32.301Z,8.70
2022-11-10T16:53:20.141Z,8.60
2022-11-10T16:56:05.422Z,8.50
2022-11-10T16:58:51.207Z,8.50
2022-11-10T17:01:37.697Z,8.50
2022-11-10T17:04:23.347Z,8.40
2022-11-10T17:07:13.150Z,8.70
2022-11-10T17:09:59.186Z,8.40
2022-11-10T17:12:45.014Z,8.30
2022-11-10T17:15:32.665Z,8.20
2022-11-10T17:18:20.487Z,8.20
2022-11-10T17:21:07.125Z,8.20
2022-11-10T17:23:52.700Z,8.20
2022-11-10T17:26:37.797Z,8.20
2022-11-10T17:29:24.516Z,8.00
2022-11-10T17:32:09.799Z,8.30
2022-11-10T17:34:55.143Z,8.20
2022-11-10T17:37:40.940Z,8.00
2022-11-10T17:40:27.841Z,7.90
2022-11-10T17:43:13.966Z,7.80
2022-11-10T17:45:59.712Z,7.90
2022-11-10T17:48:46.961Z,8.00
2022-11-10T17:51:33.551Z,7.80
2022-11-10T17:54:19.453Z,7.80
2022-11-10T17:57:04.525Z,7.60
2022-11-10T17:59:49.908Z,7.50
2022-11-10T18:02:35.472Z,7.60
2022-11-10T18:05:20.982Z,7.40
2022-11-10T18:08:06.572Z,7.50
2022-11-10T18:10:53.190Z,7.70
2022-11-10T18:13:39.254Z,7.80
2022-11-10T18:16:25.347Z,7.80
2022-11-10T18:19:11.165Z,7.70
2022-11-10T18:21:57.126Z,7.50
2022-11-10T18:24:43.020Z,7.40
2022-11-10T18:27:28.974Z,7.30
2022-11-10T18:30:14.577Z,7.30
2022-11-10T18:33:03.938Z,7.40
2022-11-10T18:35:49.480Z,7.30
2022-11-10T18:38:35.967Z,7.30
2022-11-10T18:41:40.087Z,7.30
2022-11-10T18:44:25.199Z,7.20
2022-11-10T18:47:12.091Z,7.20
2022-11-10T18:49:57.887Z,7.40
2022-11-10T18:52:43.643Z,7.40
2022-11-10T18:55:29.464Z,7.30
2022-11-10T18:58:14.974Z,7.20
2022-11-10T19:01:07.517Z,7.10
2022-11-10T19:03:53.121Z,7.20
2022-11-10T19:06:39.034Z,7.10
2022-11-10T19:09:24.758Z,7.10
2022-11-10T19:12:10.383Z,7.00
2022-11-10T19:14:55.834Z,6.90
2022-11-10T19:17:41.518Z,7.10
2022-11-10T19:20:26.961Z,7.00
2022-11-10T19:23:12.138Z,7.00
2022-11-10T19:26:01.360Z,7.00
2022-11-10T19:28:46.675Z,6.90
2022-11-10T19:31:32.001Z,6.80
2022-11-10T19:34:18.930Z,6.90
2022-11-10T19:37:05.771Z,6.90
2022-11-10T19:39:51.286Z,6.80
2022-11-10T19:42:36.869Z,6.70
2022-11-10T19:45:22.337Z,6.70
2022-11-10T19:48:07.699Z,6.70
2022-11-10T19:50:54.388Z,6.70
2022-11-10T19:53:43.447Z,6.70
2022-11-10T19:56:33.808Z,6.70
2022-11-10T19:59:21.081Z,6.60
2022-11-10T20:02:07.482Z,6.60
2022-11-10T20:05:10.952Z,6.60
2022-11-10T20:08:11.704Z,6.60
2022-11-10T20:11:16.431Z,6.50
2022-11-10T20:14:01.888Z,6.60
2022-11-10T20:16:47.784Z,6.60
2022-11-10T20:19:40.875Z,6.60
2022-11-10T20:22:26.910Z,6.60
2022-11-10T20:25:12.626Z,6.50
2022-11-10T20:27:58.962Z,6.60
2022-11-10T20:30:44.921Z,6.50
2022-11-10T20:33:30.780Z,6.50
2022-11-10T20:36:21.054Z,6.40
2022-11-10T20:39:06.964Z,6.40
2022-11-10T20:41:52.778Z,6.30
2022-11-10T20:44:38.179Z,6.30
2022-11-10T20:47:24.357Z,6.40
2022-11-10T20:50:14.465Z,6.50
2022-11-10T20:53:01.661Z,6.40
2022-11-10T20:55:54.262Z,6.20
2022-11-10T20:58:40.082Z,6.20
2022-11-10T21:01:26.027Z,6.10
2022-11-10T21:04:12.047Z,6.10
2022-11-10T21:06:57.207Z,6.10
2022-11-10T21:09:42.732Z,6.10
2022-11-10T21:12:46.923Z,6.10
2022-11-10T21:15:32.567Z,6.10
2022-11-10T21:18:19.159Z,6.00
2022-11-10T21:21:05.272Z,6.00
2022-11-10T21:23:57.056Z,6.10
2022-11-10T21:26:42.819Z,6.00
2022-11-10T21:29:28.325Z,6.00
2022-11-10T21:32:13.617Z,5.90
2022-11-10T21:34:59.013Z,5.80
2022-11-10T21:37:44.676Z,5.90
2022-11-10T21:40:30.248Z,6.00
2022-11-10T21:43:15.795Z,5.90
2022-11-10T21:46:05.849Z,5.90
2022-11-10T21:48:51.397Z,5.80
2022-11-10T21:51:36.651Z,5.90
2022-11-10T21:54:22.453Z,5.90
2022-11-10T21:57:08.008Z,5.90
2022-11-10T21:59:53.988Z,5.90
2022-11-10T22:02:39.662Z,5.90
2022-11-10T22:05:25.543Z,5.90
2022-11-10T22:08:10.943Z,6.00
2022-11-10T22:11:15.170Z,6.00
2022-11-10T22:14:19.066Z,6.00
2022-11-10T22:17:32.373Z,5.90
2022-11-10T22:20:17.933Z,5.90
2022-11-10T22:23:04.069Z,5.90
2022-11-10T22:25:49.558Z,5.90
2022-11-10T22:28:35.262Z,5.90
2022-11-10T22:31:20.937Z,5.80
2022-11-10T22:34:06.812Z,5.70
2022-11-10T22:36:53.625Z,5.80
2022-11-10T22:39:58.262Z,5.70
2022-11-10T22:43:02.589Z,5.60
2022-11-10T22:45:48.165Z,5.60
2022-11-10T22:48:33.978Z,5.70
2022-11-10T22:51:19.561Z,5.50
2022-11-10T22:54:06.229Z,5.50
2022-11-10T22:56:51.921Z,5.40
2022-11-10T22:59:37.260Z,5.30
2022-11-10T23:02:22.874Z,5.30
2022-11-10T23:05:08.290Z,5.30
2022-11-10T23:07:55.166Z,5.30
2022-11-10T23:10:40.867Z,5.20
2022-11-10T23:13:26.557Z,5.20
2022-11-10T23:16:13.365Z,5.20
2022-11-10T23:18:59.098Z,5.30
2022-11-10T23:21:44.556Z,5.30
2022-11-10T23:24:30.957Z,5.30
2022-11-10T23:27:16.426Z,5.20
2022-11-10T23:30:02.034Z,5.10
2022-11-10T23:32:47.421Z,5.20
2022-11-10T23:35:33.054Z,5.10
2022-11-10T23:38:18.986Z,5.10
2022-11-10T23:41:05.106Z,5.20
2022-11-10T23:43:50.301Z,5.20
2022-11-10T23:46:35.944Z,5.20
2022-11-10T23:49:21.257Z,5.10
2022-11-10T23:52:07.062Z,5.00
2022-11-10T23:54:52.418Z,5.00
2022-11-10T23:57:37.987Z,5.00
